sensor_id;sensor_type;location;lat;lon;timestamp;temperature;humidity
5846;DHT22;2949;50.778;7.094;2023-03-23T00:00:58;13.20;99.90
5846;DHT22;2949;50.778;7.094;2023-03-23T00:03:24;13.10;99.90
5846;DHT22;2949;50.778;7.094;2023-03-23T00:05:51;13.10;99.90
5846;DHT22;2949;50.778;7.094;2023-03-23T00:08:18;13.10;99.90
5846;DHT22;2949;50.778;7.094;2023-03-23T00:10:48;13.10;99.90
5846;DHT22;2949;50.778;7.094;2023-03-23T00:13:14;13.10;99.90
5846;DHT22;2949;50.778;7.094;2023-03-23T00:15:45;13.00;99.90
5846;DHT22;2949;50.778;7.094;2023-03-23T00:18:10;13.00;99.90
5846;DHT22;2949;50.778;7.094;2023-03-23T00:20:46;13.10;99.90
5846;DHT22;2949;50.778;7.094;2023-03-23T00:23:17;13.10;99.90
5846;DHT22;2949;50.778;7.094;2023-03-23T00:25:45;13.10;99.90
5846;DHT22;2949;50.778;7.094;2023-03-23T00:28:11;13.10;99.90
5846;DHT22;2949;50.778;7.094;2023-03-23T00:30:39;13.10;99.90
5846;DHT22;2949;50.778;7.094;2023-03-23T00:33:04;13.10;99.90
5846;DHT22;2949;50.778;7.094;2023-03-23T00:35:30;13.10;99.90
5846;DHT22;2949;50.778;7.094;2023-03-23T00:37:56;13.10;99.90
5846;DHT22;2949;50.778;7.094;2023-03-23T00:40:21;13.00;99.90
5846;DHT22;2949;50.778;7.094;2023-03-23T00:42:47;13.10;99.90
5846;DHT22;2949;50.778;7.094;2023-03-23T00:45:15;13.10;99.90
5846;DHT22;2949;50.778;7.094;2023-03-23T00:47:41;13.10;99.90
5846;DHT22;2949;50.778;7.094;2023-03-23T00:50:12;13.00;99.90
5846;DHT22;2949;50.778;7.094;2023-03-23T00:52:40;13.00;99.90
5846;DHT22;2949;50.778;7.094;2023-03-23T00:55:06;13.00;99.90
5846;DHT22;2949;50.778;7.094;2023-03-23T00:57:32;13.00;99.90
5846;DHT22;2949;50.778;7.094;2023-03-23T00:59:57;13.00;99.90
5846;DHT22;2949;50.778;7.094;2023-03-23T01:02:23;13.10;99.90
5846;DHT22;2949;50.778;7.094;2023-03-23T01:04:50;13.00;99.90
5846;DHT22;2949;50.778;7.094;2023-03-23T01:07:20;13.00;99.90
5846;DHT22;2949;50.778;7.094;2023-03-23T01:09:47;13.00;99.90
5846;DHT22;2949;50.778;7.094;2023-03-23T01:12:13;13.00;99.90
5846;DHT22;2949;50.778;7.094;2023-03-23T01:14:40;13.00;99.90
5846;DHT22;2949;50.778;7.094;2023-03-23T01:17:06;12.90;99.90
5846;DHT22;2949;50.778;7.094;2023-03-23T01:19:31;12.90;99.90
5846;DHT22;2949;50.778;7.094;2023-03-23T01:21:57;12.80;99.90
5846;DHT22;2949;50.778;7.094;2023-03-23T01:24:22;12.80;99.90
5846;DHT22;2949;50.778;7.094;2023-03-23T01:26:48;12.80;99.90
5846;DHT22;2949;50.778;7.094;2023-03-23T01:29:13;12.90;99.90
5846;DHT22;2949;50.778;7.094;2023-03-23T01:31:39;12.90;99.90
5846;DHT22;2949;50.778;7.094;2023-03-23T01:34:05;12.90;99.90
5846;DHT22;2949;50.778;7.094;2023-03-23T01:36:31;12.90;99.90
5846;DHT22;2949;50.778;7.094;2023-03-23T01:38:59;12.90;99.90
5846;DHT22;2949;50.778;7.094;2023-03-23T01:41:26;13.00;99.90
5846;DHT22;2949;50.778;7.094;2023-03-23T01:46:49;12.90;99.90
5846;DHT22;2949;50.778;7.094;2023-03-23T01:49:19;12.90;99.90
5846;DHT22;2949;50.778;7.094;2023-03-23T01:51:49;12.80;99.90
5846;DHT22;2949;50.778;7.094;2023-03-23T01:54:18;12.80;99.90
5846;DHT22;2949;50.778;7.094;2023-03-23T01:56:52;12.80;99.90
5846;DHT22;2949;50.778;7.094;2023-03-23T01:59:20;12.70;99.90
5846;DHT22;2949;50.778;7.094;2023-03-23T02:01:46;12.70;99.90
5846;DHT22;2949;50.778;7.094;2023-03-23T02:04:13;12.70;99.90
5846;DHT22;2949;50.778;7.094;2023-03-23T02:06:40;12.70;99.90
5846;DHT22;2949;50.778;7.094;2023-03-23T02:09:06;12.60;99.90
5846;DHT22;2949;50.778;7.094;2023-03-23T02:11:32;12.60;99.90
5846;DHT22;2949;50.778;7.094;2023-03-23T02:13:58;12.60;99.90
5846;DHT22;2949;50.778;7.094;2023-03-23T02:24:52;12.50;99.90
5846;DHT22;2949;50.778;7.094;2023-03-23T02:27:45;12.50;99.90
5846;DHT22;2949;50.778;7.094;2023-03-23T02:30:27;12.40;99.90
5846;DHT22;2949;50.778;7.094;2023-03-23T02:33:29;12.40;99.90
5846;DHT22;2949;50.778;7.094;2023-03-23T02:36:00;12.30;99.90
5846;DHT22;2949;50.778;7.094;2023-03-23T02:38:35;12.30;99.90
5846;DHT22;2949;50.778;7.094;2023-03-23T02:41:03;12.40;99.90
5846;DHT22;2949;50.778;7.094;2023-03-23T02:43:33;12.40;99.90
5846;DHT22;2949;50.778;7.094;2023-03-23T02:46:04;12.30;99.90
5846;DHT22;2949;50.778;7.094;2023-03-23T02:48:32;12.30;99.90
5846;DHT22;2949;50.778;7.094;2023-03-23T02:51:00;12.30;99.90
5846;DHT22;2949;50.778;7.094;2023-03-23T02:53:28;12.20;99.90
5846;DHT22;2949;50.778;7.094;2023-03-23T02:55:56;12.20;99.90
5846;DHT22;2949;50.778;7.094;2023-03-23T02:58:22;12.20;99.90
5846;DHT22;2949;50.778;7.094;2023-03-23T03:00:51;12.20;99.90
5846;DHT22;2949;50.778;7.094;2023-03-23T03:03:20;12.10;99.90
5846;DHT22;2949;50.778;7.094;2023-03-23T03:09:13;12.00;99.90
5846;DHT22;2949;50.778;7.094;2023-03-23T03:11:19;12.00;99.90
5846;DHT22;2949;50.778;7.094;2023-03-23T03:14:00;11.90;99.90
5846;DHT22;2949;50.778;7.094;2023-03-23T03:16:40;11.90;99.90
5846;DHT22;2949;50.778;7.094;2023-03-23T03:19:11;11.80;99.90
5846;DHT22;2949;50.778;7.094;2023-03-23T03:21:40;11.80;99.90
5846;DHT22;2949;50.778;7.094;2023-03-23T03:24:08;11.80;99.90
5846;DHT22;2949;50.778;7.094;2023-03-23T03:26:38;11.70;99.90
5846;DHT22;2949;50.778;7.094;2023-03-23T03:29:07;11.70;99.90
5846;DHT22;2949;50.778;7.094;2023-03-23T03:31:36;11.60;99.90
5846;DHT22;2949;50.778;7.094;2023-03-23T03:34:04;11.60;99.90
5846;DHT22;2949;50.778;7.094;2023-03-23T03:36:33;11.50;99.90
5846;DHT22;2949;50.778;7.094;2023-03-23T03:39:03;11.60;99.90
5846;DHT22;2949;50.778;7.094;2023-03-23T03:41:30;11.50;99.90
5846;DHT22;2949;50.778;7.094;2023-03-23T03:43:56;11.50;99.90
5846;DHT22;2949;50.778;7.094;2023-03-23T03:46:22;11.60;99.90
5846;DHT22;2949;50.778;7.094;2023-03-23T03:48:47;11.50;99.90
5846;DHT22;2949;50.778;7.094;2023-03-23T03:51:13;11.60;99.90
5846;DHT22;2949;50.778;7.094;2023-03-23T03:53:38;11.60;99.90
5846;DHT22;2949;50.778;7.094;2023-03-23T03:56:04;11.60;99.90
5846;DHT22;2949;50.778;7.094;2023-03-23T03:58:30;11.60;99.90
5846;DHT22;2949;50.778;7.094;2023-03-23T04:00:59;11.70;99.90
5846;DHT22;2949;50.778;7.094;2023-03-23T04:03:25;11.70;99.90
5846;DHT22;2949;50.778;7.094;2023-03-23T04:05:52;11.70;99.90
5846;DHT22;2949;50.778;7.094;2023-03-23T04:08:17;11.70;99.90
5846;DHT22;2949;50.778;7.094;2023-03-23T04:10:44;11.70;99.90
5846;DHT22;2949;50.778;7.094;2023-03-23T04:13:09;11.70;99.90
5846;DHT22;2949;50.778;7.094;2023-03-23T04:15:35;11.70;99.90
5846;DHT22;2949;50.778;7.094;2023-03-23T04:18:01;11.70;99.90
5846;DHT22;2949;50.778;7.094;2023-03-23T04:20:26;11.70;99.90
5846;DHT22;2949;50.778;7.094;2023-03-23T04:22:52;11.70;99.90
5846;DHT22;2949;50.778;7.094;2023-03-23T04:25:20;11.60;99.90
5846;DHT22;2949;50.778;7.094;2023-03-23T04:27:47;11.60;99.90
5846;DHT22;2949;50.778;7.094;2023-03-23T04:30:21;11.60;99.90
5846;DHT22;2949;50.778;7.094;2023-03-23T04:32:48;11.60;99.90
5846;DHT22;2949;50.778;7.094;2023-03-23T04:35:16;11.60;99.90
5846;DHT22;2949;50.778;7.094;2023-03-23T04:37:42;11.60;99.90
5846;DHT22;2949;50.778;7.094;2023-03-23T04:40:09;11.50;99.90
5846;DHT22;2949;50.778;7.094;2023-03-23T04:42:38;11.50;99.90
5846;DHT22;2949;50.778;7.094;2023-03-23T04:45:06;11.50;99.90
5846;DHT22;2949;50.778;7.094;2023-03-23T04:47:34;11.50;99.90
5846;DHT22;2949;50.778;7.094;2023-03-23T04:50:05;11.50;99.90
5846;DHT22;2949;50.778;7.094;2023-03-23T04:52:32;11.40;99.90
5846;DHT22;2949;50.778;7.094;2023-03-23T04:54:57;11.40;99.90
5846;DHT22;2949;50.778;7.094;2023-03-23T04:57:24;11.30;99.90
5846;DHT22;2949;50.778;7.094;2023-03-23T04:59:52;11.30;99.90
5846;DHT22;2949;50.778;7.094;2023-03-23T05:02:18;11.30;99.90
5846;DHT22;2949;50.778;7.094;2023-03-23T05:04:44;11.40;99.90
5846;DHT22;2949;50.778;7.094;2023-03-23T05:07:10;11.40;99.90
5846;DHT22;2949;50.778;7.094;2023-03-23T05:09:36;11.40;99.90
5846;DHT22;2949;50.778;7.094;2023-03-23T05:12:09;11.30;99.90
5846;DHT22;2949;50.778;7.094;2023-03-23T05:14:35;11.30;99.90
5846;DHT22;2949;50.778;7.094;2023-03-23T05:17:01;11.20;99.90
5846;DHT22;2949;50.778;7.094;2023-03-23T05:19:27;11.10;99.90
5846;DHT22;2949;50.778;7.094;2023-03-23T05:21:53;11.00;99.90
5846;DHT22;2949;50.778;7.094;2023-03-23T05:24:19;11.00;99.90
5846;DHT22;2949;50.778;7.094;2023-03-23T05:26:45;11.00;99.90
5846;DHT22;2949;50.778;7.094;2023-03-23T05:29:14;10.90;99.90
5846;DHT22;2949;50.778;7.094;2023-03-23T05:31:39;10.90;99.90
5846;DHT22;2949;50.778;7.094;2023-03-23T05:34:05;10.90;99.90
5846;DHT22;2949;50.778;7.094;2023-03-23T05:36:31;10.90;99.90
5846;DHT22;2949;50.778;7.094;2023-03-23T05:38:56;10.90;99.90
5846;DHT22;2949;50.778;7.094;2023-03-23T05:41:25;10.90;99.90
5846;DHT22;2949;50.778;7.094;2023-03-23T05:43:51;11.00;99.90
5846;DHT22;2949;50.778;7.094;2023-03-23T05:46:16;11.10;99.90
5846;DHT22;2949;50.778;7.094;2023-03-23T05:48:43;11.10;99.90
5846;DHT22;2949;50.778;7.094;2023-03-23T05:51:08;11.20;99.90
5846;DHT22;2949;50.778;7.094;2023-03-23T05:53:35;11.30;99.90
5846;DHT22;2949;50.778;7.094;2023-03-23T05:56:01;11.40;99.90
5846;DHT22;2949;50.778;7.094;2023-03-23T05:58:27;11.40;99.90
5846;DHT22;2949;50.778;7.094;2023-03-23T06:00:52;11.50;99.90
5846;DHT22;2949;50.778;7.094;2023-03-23T06:03:18;11.50;99.90
5846;DHT22;2949;50.778;7.094;2023-03-23T06:05:45;11.50;99.90
5846;DHT22;2949;50.778;7.094;2023-03-23T06:08:11;11.50;99.90
5846;DHT22;2949;50.778;7.094;2023-03-23T06:10:37;11.60;99.90
5846;DHT22;2949;50.778;7.094;2023-03-23T06:13:04;11.60;99.90
5846;DHT22;2949;50.778;7.094;2023-03-23T06:15:30;11.60;99.90
5846;DHT22;2949;50.778;7.094;2023-03-23T06:18:04;11.70;99.90
5846;DHT22;2949;50.778;7.094;2023-03-23T06:20:30;11.80;99.90
5846;DHT22;2949;50.778;7.094;2023-03-23T06:22:56;11.90;99.90
5846;DHT22;2949;50.778;7.094;2023-03-23T06:25:22;12.00;99.90
5846;DHT22;2949;50.778;7.094;2023-03-23T06:27:48;12.00;99.90
5846;DHT22;2949;50.778;7.094;2023-03-23T06:30:13;12.00;99.90
5846;DHT22;2949;50.778;7.094;2023-03-23T06:32:42;12.10;99.90
5846;DHT22;2949;50.778;7.094;2023-03-23T06:35:11;12.20;99.90
5846;DHT22;2949;50.778;7.094;2023-03-23T06:37:37;12.30;99.90
5846;DHT22;2949;50.778;7.094;2023-03-23T06:40:03;12.40;99.90
5846;DHT22;2949;50.778;7.094;2023-03-23T06:42:31;12.40;99.90
5846;DHT22;2949;50.778;7.094;2023-03-23T06:44:57;12.50;99.90
5846;DHT22;2949;50.778;7.094;2023-03-23T06:47:24;12.70;99.90
5846;DHT22;2949;50.778;7.094;2023-03-23T06:49:50;12.80;99.90
5846;DHT22;2949;50.778;7.094;2023-03-23T06:52:15;12.90;99.90
5846;DHT22;2949;50.778;7.094;2023-03-23T06:54:41;12.90;99.90
5846;DHT22;2949;50.778;7.094;2023-03-23T06:57:07;13.00;99.90
5846;DHT22;2949;50.778;7.094;2023-03-23T06:59:33;13.00;99.90
5846;DHT22;2949;50.778;7.094;2023-03-23T07:01:58;13.10;99.90
5846;DHT22;2949;50.778;7.094;2023-03-23T07:04:24;13.10;99.90
5846;DHT22;2949;50.778;7.094;2023-03-23T07:06:50;13.20;99.90
5846;DHT22;2949;50.778;7.094;2023-03-23T07:09:15;13.20;99.90
5846;DHT22;2949;50.778;7.094;2023-03-23T07:11:41;13.20;99.90
5846;DHT22;2949;50.778;7.094;2023-03-23T07:14:07;13.20;99.90
5846;DHT22;2949;50.778;7.094;2023-03-23T07:16:33;13.20;99.90
5846;DHT22;2949;50.778;7.094;2023-03-23T07:18:59;13.20;99.90
5846;DHT22;2949;50.778;7.094;2023-03-23T07:21:25;13.30;99.90
5846;DHT22;2949;50.778;7.094;2023-03-23T07:23:51;13.30;99.90
5846;DHT22;2949;50.778;7.094;2023-03-23T07:26:17;13.40;99.90
5846;DHT22;2949;50.778;7.094;2023-03-23T07:28:43;13.40;99.90
5846;DHT22;2949;50.778;7.094;2023-03-23T07:31:08;13.60;99.90
5846;DHT22;2949;50.778;7.094;2023-03-23T07:33:34;13.70;99.90
5846;DHT22;2949;50.778;7.094;2023-03-23T07:36:01;13.80;99.90
5846;DHT22;2949;50.778;7.094;2023-03-23T07:38:28;13.80;99.90
5846;DHT22;2949;50.778;7.094;2023-03-23T07:40:54;13.80;99.90
5846;DHT22;2949;50.778;7.094;2023-03-23T07:43:20;13.90;99.90
5846;DHT22;2949;50.778;7.094;2023-03-23T07:45:46;13.90;99.90
5846;DHT22;2949;50.778;7.094;2023-03-23T07:48:11;13.90;99.90
5846;DHT22;2949;50.778;7.094;2023-03-23T07:50:38;14.00;99.90
5846;DHT22;2949;50.778;7.094;2023-03-23T07:53:03;14.10;99.90
5846;DHT22;2949;50.778;7.094;2023-03-23T07:55:29;14.20;99.90
5846;DHT22;2949;50.778;7.094;2023-03-23T07:57:55;14.20;99.90
5846;DHT22;2949;50.778;7.094;2023-03-23T08:00:21;14.30;99.90
5846;DHT22;2949;50.778;7.094;2023-03-23T08:02:53;14.30;99.90
5846;DHT22;2949;50.778;7.094;2023-03-23T08:05:21;14.40;99.90
5846;DHT22;2949;50.778;7.094;2023-03-23T08:07:48;14.40;99.90
5846;DHT22;2949;50.778;7.094;2023-03-23T08:10:15;14.50;99.90
5846;DHT22;2949;50.778;7.094;2023-03-23T08:12:42;14.60;99.90
5846;DHT22;2949;50.778;7.094;2023-03-23T08:15:10;14.70;99.90
5846;DHT22;2949;50.778;7.094;2023-03-23T08:17:38;14.70;99.90
5846;DHT22;2949;50.778;7.094;2023-03-23T08:20:04;14.70;99.90
5846;DHT22;2949;50.778;7.094;2023-03-23T08:22:43;14.70;99.90
5846;DHT22;2949;50.778;7.094;2023-03-23T08:25:13;14.60;99.90
5846;DHT22;2949;50.778;7.094;2023-03-23T08:27:39;14.60;99.90
5846;DHT22;2949;50.778;7.094;2023-03-23T08:30:14;14.60;99.90
5846;DHT22;2949;50.778;7.094;2023-03-23T08:32:40;14.70;99.90
5846;DHT22;2949;50.778;7.094;2023-03-23T08:35:08;14.80;99.90
5846;DHT22;2949;50.778;7.094;2023-03-23T08:37:34;14.80;99.90
5846;DHT22;2949;50.778;7.094;2023-03-23T08:40:00;14.70;99.90
5846;DHT22;2949;50.778;7.094;2023-03-23T08:42:29;14.70;99.90
5846;DHT22;2949;50.778;7.094;2023-03-23T08:44:54;14.70;99.90
5846;DHT22;2949;50.778;7.094;2023-03-23T08:47:21;14.70;99.90
5846;DHT22;2949;50.778;7.094;2023-03-23T08:49:46;14.80;99.90
5846;DHT22;2949;50.778;7.094;2023-03-23T08:52:12;14.80;99.90
5846;DHT22;2949;50.778;7.094;2023-03-23T08:54:37;14.80;99.90
5846;DHT22;2949;50.778;7.094;2023-03-23T08:57:03;14.90;99.90
5846;DHT22;2949;50.778;7.094;2023-03-23T08:59:29;15.10;99.90
5846;DHT22;2949;50.778;7.094;2023-03-23T09:01:54;15.20;99.90
5846;DHT22;2949;50.778;7.094;2023-03-23T09:04:20;15.30;99.90
5846;DHT22;2949;50.778;7.094;2023-03-23T09:06:46;15.40;99.90
5846;DHT22;2949;50.778;7.094;2023-03-23T09:09:12;15.40;99.90
5846;DHT22;2949;50.778;7.094;2023-03-23T09:11:38;15.40;99.90
5846;DHT22;2949;50.778;7.094;2023-03-23T09:14:06;15.40;99.90
5846;DHT22;2949;50.778;7.094;2023-03-23T09:16:32;15.50;99.90
5846;DHT22;2949;50.778;7.094;2023-03-23T09:18:59;15.60;99.90
5846;DHT22;2949;50.778;7.094;2023-03-23T09:21:26;15.60;99.90
5846;DHT22;2949;50.778;7.094;2023-03-23T09:23:52;15.60;99.90
5846;DHT22;2949;50.778;7.094;2023-03-23T09:26:19;15.50;99.90
5846;DHT22;2949;50.778;7.094;2023-03-23T09:28:45;15.40;99.90
5846;DHT22;2949;50.778;7.094;2023-03-23T09:31:11;15.30;99.90
5846;DHT22;2949;50.778;7.094;2023-03-23T09:33:38;15.20;99.90
5846;DHT22;2949;50.778;7.094;2023-03-23T09:36:04;15.10;99.90
5846;DHT22;2949;50.778;7.094;2023-03-23T09:38:31;15.20;99.90
5846;DHT22;2949;50.778;7.094;2023-03-23T09:44:19;15.20;99.90
5846;DHT22;2949;50.778;7.094;2023-03-23T09:49:30;15.40;99.90
5846;DHT22;2949;50.778;7.094;2023-03-23T09:52:05;15.40;99.90
5846;DHT22;2949;50.778;7.094;2023-03-23T09:57:01;15.50;99.90
5846;DHT22;2949;50.778;7.094;2023-03-23T09:59:37;15.40;99.90
5846;DHT22;2949;50.778;7.094;2023-03-23T10:02:19;15.30;99.90
5846;DHT22;2949;50.778;7.094;2023-03-23T10:04:51;15.30;99.90
5846;DHT22;2949;50.778;7.094;2023-03-23T10:07:23;15.30;99.90
5846;DHT22;2949;50.778;7.094;2023-03-23T10:09:54;15.60;99.90
5846;DHT22;2949;50.778;7.094;2023-03-23T10:12:35;16.10;99.90
5846;DHT22;2949;50.778;7.094;2023-03-23T10:17:39;16.50;99.90
5846;DHT22;2949;50.778;7.094;2023-03-23T10:25:55;16.90;99.90
5846;DHT22;2949;50.778;7.094;2023-03-23T10:28:40;16.80;99.90
5846;DHT22;2949;50.778;7.094;2023-03-23T10:31:11;16.80;99.90
5846;DHT22;2949;50.778;7.094;2023-03-23T10:33:49;16.70;99.90
5846;DHT22;2949;50.778;7.094;2023-03-23T10:36:21;16.40;99.90
5846;DHT22;2949;50.778;7.094;2023-03-23T10:39:05;16.10;99.90
5846;DHT22;2949;50.778;7.094;2023-03-23T10:41:33;15.80;99.90
5846;DHT22;2949;50.778;7.094;2023-03-23T10:43:59;15.50;99.90
5846;DHT22;2949;50.778;7.094;2023-03-23T10:48:56;15.20;99.90
5846;DHT22;2949;50.778;7.094;2023-03-23T10:51:28;15.20;99.90
5846;DHT22;2949;50.778;7.094;2023-03-23T10:54:00;15.30;99.90
5846;DHT22;2949;50.778;7.094;2023-03-23T10:56:29;15.50;99.90
5846;DHT22;2949;50.778;7.094;2023-03-23T10:59:10;16.00;99.90
5846;DHT22;2949;50.778;7.094;2023-03-23T11:01:36;16.60;99.90
5846;DHT22;2949;50.778;7.094;2023-03-23T11:04:03;16.90;99.90
5846;DHT22;2949;50.778;7.094;2023-03-23T11:06:35;17.00;99.90
5846;DHT22;2949;50.778;7.094;2023-03-23T11:09:13;16.90;99.90
5846;DHT22;2949;50.778;7.094;2023-03-23T11:11:50;16.60;99.90
5846;DHT22;2949;50.778;7.094;2023-03-23T11:14:19;16.30;99.90
5846;DHT22;2949;50.778;7.094;2023-03-23T11:16:56;16.10;99.90
5846;DHT22;2949;50.778;7.094;2023-03-23T11:19:26;16.00;99.90
5846;DHT22;2949;50.778;7.094;2023-03-23T11:21:53;16.30;99.90
5846;DHT22;2949;50.778;7.094;2023-03-23T11:24:22;16.50;99.90
5846;DHT22;2949;50.778;7.094;2023-03-23T11:26:49;16.60;99.90
5846;DHT22;2949;50.778;7.094;2023-03-23T11:29:19;16.60;99.90
5846;DHT22;2949;50.778;7.094;2023-03-23T11:31:47;16.60;99.90
5846;DHT22;2949;50.778;7.094;2023-03-23T11:34:19;16.50;99.90
5846;DHT22;2949;50.778;7.094;2023-03-23T11:36:55;16.70;99.90
5846;DHT22;2949;50.778;7.094;2023-03-23T11:39:32;17.10;99.90
5846;DHT22;2949;50.778;7.094;2023-03-23T11:42:01;17.80;99.90
5846;DHT22;2949;50.778;7.094;2023-03-23T11:44:41;18.30;99.90
5846;DHT22;2949;50.778;7.094;2023-03-23T11:55:29;19.80;99.90
5846;DHT22;2949;50.778;7.094;2023-03-23T11:57:56;19.70;99.90
5846;DHT22;2949;50.778;7.094;2023-03-23T12:00:25;19.50;99.90
5846;DHT22;2949;50.778;7.094;2023-03-23T12:02:53;19.00;99.90
5846;DHT22;2949;50.778;7.094;2023-03-23T12:05:28;18.50;99.90
5846;DHT22;2949;50.778;7.094;2023-03-23T12:08:17;17.90;99.90
5846;DHT22;2949;50.778;7.094;2023-03-23T12:11:07;17.50;99.90
5846;DHT22;2949;50.778;7.094;2023-03-23T12:18:57;18.20;99.90
5846;DHT22;2949;50.778;7.094;2023-03-23T12:26:52;18.30;99.90
5846;DHT22;2949;50.778;7.094;2023-03-23T12:29:43;18.50;99.90
5846;DHT22;2949;50.778;7.094;2023-03-23T12:40:24;17.60;99.90
5846;DHT22;2949;50.778;7.094;2023-03-23T12:43:17;17.60;99.90
5846;DHT22;2949;50.778;7.094;2023-03-23T12:46:57;17.50;99.90
5846;DHT22;2949;50.778;7.094;2023-03-23T12:49:41;17.30;99.90
5846;DHT22;2949;50.778;7.094;2023-03-23T12:52:06;16.90;99.90
5846;DHT22;2949;50.778;7.094;2023-03-23T12:55:04;16.70;99.90
5846;DHT22;2949;50.778;7.094;2023-03-23T12:57:44;16.60;99.90
5846;DHT22;2949;50.778;7.094;2023-03-23T13:03:56;16.60;99.90
5846;DHT22;2949;50.778;7.094;2023-03-23T13:06:40;16.50;99.90
5846;DHT22;2949;50.778;7.094;2023-03-23T13:11:42;16.40;99.90
5846;DHT22;2949;50.778;7.094;2023-03-23T13:17:25;16.40;99.90
5846;DHT22;2949;50.778;7.094;2023-03-23T13:20:27;16.60;99.90
5846;DHT22;2949;50.778;7.094;2023-03-23T13:26:06;17.20;99.90
5846;DHT22;2949;50.778;7.094;2023-03-23T13:28:48;17.30;99.90
5846;DHT22;2949;50.778;7.094;2023-03-23T13:31:17;17.60;99.90
5846;DHT22;2949;50.778;7.094;2023-03-23T13:33:51;17.90;99.90
5846;DHT22;2949;50.778;7.094;2023-03-23T13:36:26;18.10;99.90
5846;DHT22;2949;50.778;7.094;2023-03-23T13:38:52;18.10;99.90
5846;DHT22;2949;50.778;7.094;2023-03-23T13:41:19;18.10;99.90
5846;DHT22;2949;50.778;7.094;2023-03-23T13:43:46;18.10;99.90
5846;DHT22;2949;50.778;7.094;2023-03-23T13:49:03;17.90;99.90
5846;DHT22;2949;50.778;7.094;2023-03-23T14:02:27;17.90;99.90
5846;DHT22;2949;50.778;7.094;2023-03-23T14:04:44;18.20;99.90
5846;DHT22;2949;50.778;7.094;2023-03-23T14:07:15;18.40;99.90
5846;DHT22;2949;50.778;7.094;2023-03-23T14:09:42;18.40;99.90
5846;DHT22;2949;50.778;7.094;2023-03-23T14:12:17;18.30;99.90
5846;DHT22;2949;50.778;7.094;2023-03-23T14:14:46;18.10;99.90
5846;DHT22;2949;50.778;7.094;2023-03-23T14:17:18;18.00;99.90
5846;DHT22;2949;50.778;7.094;2023-03-23T14:19:50;17.90;99.90
5846;DHT22;2949;50.778;7.094;2023-03-23T14:22:23;17.90;99.90
5846;DHT22;2949;50.778;7.094;2023-03-23T14:24:49;17.80;99.90
5846;DHT22;2949;50.778;7.094;2023-03-23T14:27:18;17.60;99.90
5846;DHT22;2949;50.778;7.094;2023-03-23T14:29:45;17.40;99.90
5846;DHT22;2949;50.778;7.094;2023-03-23T14:32:15;17.20;99.90
5846;DHT22;2949;50.778;7.094;2023-03-23T14:34:41;17.00;99.90
5846;DHT22;2949;50.778;7.094;2023-03-23T14:37:13;16.90;99.90
5846;DHT22;2949;50.778;7.094;2023-03-23T14:39:44;16.80;99.90
5846;DHT22;2949;50.778;7.094;2023-03-23T14:42:13;16.70;99.90
5846;DHT22;2949;50.778;7.094;2023-03-23T14:44:44;16.60;99.90
5846;DHT22;2949;50.778;7.094;2023-03-23T14:47:27;16.60;99.90
5846;DHT22;2949;50.778;7.094;2023-03-23T14:49:57;16.50;99.90
5846;DHT22;2949;50.778;7.094;2023-03-23T14:52:29;16.40;99.90
5846;DHT22;2949;50.778;7.094;2023-03-23T14:54:55;16.40;99.90
5846;DHT22;2949;50.778;7.094;2023-03-23T14:59:49;16.50;99.90
5846;DHT22;2949;50.778;7.094;2023-03-23T15:02:25;16.50;99.90
5846;DHT22;2949;50.778;7.094;2023-03-23T15:04:58;16.50;99.90
5846;DHT22;2949;50.778;7.094;2023-03-23T15:07:29;16.60;99.90
5846;DHT22;2949;50.778;7.094;2023-03-23T15:09:56;16.60;99.90
5846;DHT22;2949;50.778;7.094;2023-03-23T15:12:24;16.60;99.90
5846;DHT22;2949;50.778;7.094;2023-03-23T15:14:53;16.60;99.90
5846;DHT22;2949;50.778;7.094;2023-03-23T15:17:26;16.80;99.90
5846;DHT22;2949;50.778;7.094;2023-03-23T15:19:53;17.10;99.90
5846;DHT22;2949;50.778;7.094;2023-03-23T15:22:30;17.20;99.90
5846;DHT22;2949;50.778;7.094;2023-03-23T15:27:48;17.20;99.90
5846;DHT22;2949;50.778;7.094;2023-03-23T15:33:04;16.90;99.90
5846;DHT22;2949;50.778;7.094;2023-03-23T15:35:34;16.90;99.90
5846;DHT22;2949;50.778;7.094;2023-03-23T15:38:03;17.00;99.90
5846;DHT22;2949;50.778;7.094;2023-03-23T15:40:36;17.10;99.90
5846;DHT22;2949;50.778;7.094;2023-03-23T15:48:17;17.40;99.90
5846;DHT22;2949;50.778;7.094;2023-03-23T15:50:46;17.40;99.90
5846;DHT22;2949;50.778;7.094;2023-03-23T15:53:31;17.40;99.90
5846;DHT22;2949;50.778;7.094;2023-03-23T15:55:59;17.40;99.90
5846;DHT22;2949;50.778;7.094;2023-03-23T15:58:26;17.50;99.90
5846;DHT22;2949;50.778;7.094;2023-03-23T16:00:51;17.50;99.90
5846;DHT22;2949;50.778;7.094;2023-03-23T16:03:26;17.40;99.90
5846;DHT22;2949;50.778;7.094;2023-03-23T16:05:54;17.40;99.90
5846;DHT22;2949;50.778;7.094;2023-03-23T16:08:21;17.30;99.90
5846;DHT22;2949;50.778;7.094;2023-03-23T16:10:47;17.20;99.90
5846;DHT22;2949;50.778;7.094;2023-03-23T16:13:13;17.20;99.90
5846;DHT22;2949;50.778;7.094;2023-03-23T16:15:39;17.10;99.90
5846;DHT22;2949;50.778;7.094;2023-03-23T16:18:04;17.00;99.90
5846;DHT22;2949;50.778;7.094;2023-03-23T16:20:30;16.90;99.90
5846;DHT22;2949;50.778;7.094;2023-03-23T16:22:57;16.90;99.90
5846;DHT22;2949;50.778;7.094;2023-03-23T16:25:23;16.90;99.90
5846;DHT22;2949;50.778;7.094;2023-03-23T16:27:49;16.80;99.90
5846;DHT22;2949;50.778;7.094;2023-03-23T16:30:21;16.80;99.90
5846;DHT22;2949;50.778;7.094;2023-03-23T16:32:47;16.70;99.90
5846;DHT22;2949;50.778;7.094;2023-03-23T16:35:13;16.60;99.90
5846;DHT22;2949;50.778;7.094;2023-03-23T16:37:44;16.50;99.90
5846;DHT22;2949;50.778;7.094;2023-03-23T16:40:11;16.40;99.90
5846;DHT22;2949;50.778;7.094;2023-03-23T16:42:37;16.30;99.90
5846;DHT22;2949;50.778;7.094;2023-03-23T16:45:03;16.20;99.90
5846;DHT22;2949;50.778;7.094;2023-03-23T16:47:28;16.20;99.90
5846;DHT22;2949;50.778;7.094;2023-03-23T16:49:54;16.10;99.90
5846;DHT22;2949;50.778;7.094;2023-03-23T16:52:19;16.00;99.90
5846;DHT22;2949;50.778;7.094;2023-03-23T16:54:46;15.90;99.90
5846;DHT22;2949;50.778;7.094;2023-03-23T16:57:11;15.90;99.90
5846;DHT22;2949;50.778;7.094;2023-03-23T16:59:37;15.80;99.90
5846;DHT22;2949;50.778;7.094;2023-03-23T17:02:03;15.70;99.90
5846;DHT22;2949;50.778;7.094;2023-03-23T17:04:29;15.60;99.90
5846;DHT22;2949;50.778;7.094;2023-03-23T17:06:56;15.50;99.90
5846;DHT22;2949;50.778;7.094;2023-03-23T17:09:24;15.40;99.90
5846;DHT22;2949;50.778;7.094;2023-03-23T17:11:51;15.30;99.90
5846;DHT22;2949;50.778;7.094;2023-03-23T17:14:16;15.20;99.90
5846;DHT22;2949;50.778;7.094;2023-03-23T17:16:42;15.00;99.90
5846;DHT22;2949;50.778;7.094;2023-03-23T17:19:07;15.00;99.90
5846;DHT22;2949;50.778;7.094;2023-03-23T17:21:33;14.80;99.90
5846;DHT22;2949;50.778;7.094;2023-03-23T17:23:58;14.70;99.90
5846;DHT22;2949;50.778;7.094;2023-03-23T17:26:24;14.50;99.90
5846;DHT22;2949;50.778;7.094;2023-03-23T17:28:49;14.40;99.90
5846;DHT22;2949;50.778;7.094;2023-03-23T17:31:15;14.40;99.90
5846;DHT22;2949;50.778;7.094;2023-03-23T17:33:41;14.40;99.90
5846;DHT22;2949;50.778;7.094;2023-03-23T17:36:07;14.30;99.90
5846;DHT22;2949;50.778;7.094;2023-03-23T17:38:32;14.30;99.90
5846;DHT22;2949;50.778;7.094;2023-03-23T17:40:59;14.20;99.90
5846;DHT22;2949;50.778;7.094;2023-03-23T17:43:26;14.20;99.90
5846;DHT22;2949;50.778;7.094;2023-03-23T17:45:51;14.20;99.90
5846;DHT22;2949;50.778;7.094;2023-03-23T17:48:17;14.20;99.90
5846;DHT22;2949;50.778;7.094;2023-03-23T17:50:52;14.10;99.90
5846;DHT22;2949;50.778;7.094;2023-03-23T17:53:18;14.10;99.90